sensor_id;sensor_type;location;lat;lon;timestamp;temperature;humidity
18291;DHT22;9271;48.590;8.866;2023-09-30T00:01:55;17.00;99.90
18291;DHT22;9271;48.590;8.866;2023-09-30T00:04:22;16.90;99.90
18291;DHT22;9271;48.590;8.866;2023-09-30T00:06:49;16.80;99.90
18291;DHT22;9271;48.590;8.866;2023-09-30T00:09:17;16.70;99.90
18291;DHT22;9271;48.590;8.866;2023-09-30T00:11:43;16.70;99.90
18291;DHT22;9271;48.590;8.866;2023-09-30T00:14:10;16.80;99.90
18291;DHT22;9271;48.590;8.866;2023-09-30T00:16:37;17.00;99.90
18291;DHT22;9271;48.590;8.866;2023-09-30T00:19:03;17.10;99.90
18291;DHT22;9271;48.590;8.866;2023-09-30T00:21:30;17.10;99.90
18291;DHT22;9271;48.590;8.866;2023-09-30T00:23:57;17.10;99.90
18291;DHT22;9271;48.590;8.866;2023-09-30T00:26:25;17.00;99.90
18291;DHT22;9271;48.590;8.866;2023-09-30T00:28:51;17.00;99.90
18291;DHT22;9271;48.590;8.866;2023-09-30T00:31:18;17.00;99.90
18291;DHT22;9271;48.590;8.866;2023-09-30T00:33:45;17.10;99.90
18291;DHT22;9271;48.590;8.866;2023-09-30T00:36:11;16.90;99.90
18291;DHT22;9271;48.590;8.866;2023-09-30T00:38:38;16.60;99.90
18291;DHT22;9271;48.590;8.866;2023-09-30T00:41:05;16.50;99.90
18291;DHT22;9271;48.590;8.866;2023-09-30T00:43:33;16.50;99.90
18291;DHT22;9271;48.590;8.866;2023-09-30T00:46:02;16.50;99.90
18291;DHT22;9271;48.590;8.866;2023-09-30T00:48:33;16.50;99.90
18291;DHT22;9271;48.590;8.866;2023-09-30T00:51:00;16.40;99.90
18291;DHT22;9271;48.590;8.866;2023-09-30T00:53:27;16.30;99.90
18291;DHT22;9271;48.590;8.866;2023-09-30T00:55:55;16.30;99.90
18291;DHT22;9271;48.590;8.866;2023-09-30T00:58:23;16.20;99.90
18291;DHT22;9271;48.590;8.866;2023-09-30T01:00:53;15.80;99.90
18291;DHT22;9271;48.590;8.866;2023-09-30T01:03:19;15.90;99.90
18291;DHT22;9271;48.590;8.866;2023-09-30T01:05:46;15.40;99.90
18291;DHT22;9271;48.590;8.866;2023-09-30T01:08:13;15.70;99.90
18291;DHT22;9271;48.590;8.866;2023-09-30T01:10:40;16.00;99.90
18291;DHT22;9271;48.590;8.866;2023-09-30T01:13:06;16.20;99.90
18291;DHT22;9271;48.590;8.866;2023-09-30T01:15:33;16.40;99.90
18291;DHT22;9271;48.590;8.866;2023-09-30T01:18:01;16.40;99.90
18291;DHT22;9271;48.590;8.866;2023-09-30T01:20:28;16.50;99.90
18291;DHT22;9271;48.590;8.866;2023-09-30T01:22:57;16.70;99.90
18291;DHT22;9271;48.590;8.866;2023-09-30T01:25:23;16.80;99.90
18291;DHT22;9271;48.590;8.866;2023-09-30T01:27:51;16.80;99.90
18291;DHT22;9271;48.590;8.866;2023-09-30T01:30:17;16.70;99.90
18291;DHT22;9271;48.590;8.866;2023-09-30T01:32:44;16.70;99.90
18291;DHT22;9271;48.590;8.866;2023-09-30T01:35:11;16.60;99.90
18291;DHT22;9271;48.590;8.866;2023-09-30T01:37:37;16.40;99.90
18291;DHT22;9271;48.590;8.866;2023-09-30T01:40:06;16.60;99.90
18291;DHT22;9271;48.590;8.866;2023-09-30T01:42:37;16.60;99.90
18291;DHT22;9271;48.590;8.866;2023-09-30T01:45:04;16.60;99.90
18291;DHT22;9271;48.590;8.866;2023-09-30T01:47:31;16.60;99.90
18291;DHT22;9271;48.590;8.866;2023-09-30T01:49:58;16.60;99.90
18291;DHT22;9271;48.590;8.866;2023-09-30T01:52:24;16.50;99.90
18291;DHT22;9271;48.590;8.866;2023-09-30T01:54:51;16.50;99.90
18291;DHT22;9271;48.590;8.866;2023-09-30T01:57:20;16.60;99.90
18291;DHT22;9271;48.590;8.866;2023-09-30T01:59:47;16.50;99.90
18291;DHT22;9271;48.590;8.866;2023-09-30T02:02:14;16.30;99.90
18291;DHT22;9271;48.590;8.866;2023-09-30T02:04:41;16.10;99.90
18291;DHT22;9271;48.590;8.866;2023-09-30T02:07:09;15.80;99.90
18291;DHT22;9271;48.590;8.866;2023-09-30T02:09:35;15.80;99.90
18291;DHT22;9271;48.590;8.866;2023-09-30T02:12:02;16.10;99.90
18291;DHT22;9271;48.590;8.866;2023-09-30T02:14:31;16.40;99.90
18291;DHT22;9271;48.590;8.866;2023-09-30T02:16:58;16.50;99.90
18291;DHT22;9271;48.590;8.866;2023-09-30T02:19:25;16.50;99.90
18291;DHT22;9271;48.590;8.866;2023-09-30T02:21:52;16.50;99.90
18291;DHT22;9271;48.590;8.866;2023-09-30T02:24:19;16.60;99.90
18291;DHT22;9271;48.590;8.866;2023-09-30T02:26:47;16.60;99.90
18291;DHT22;9271;48.590;8.866;2023-09-30T02:29:14;16.60;99.90
18291;DHT22;9271;48.590;8.866;2023-09-30T02:31:42;16.60;99.90
18291;DHT22;9271;48.590;8.866;2023-09-30T02:34:08;16.70;99.90
18291;DHT22;9271;48.590;8.866;2023-09-30T02:36:35;16.90;99.90
18291;DHT22;9271;48.590;8.866;2023-09-30T02:39:03;17.00;99.90
18291;DHT22;9271;48.590;8.866;2023-09-30T02:41:30;17.00;99.90
18291;DHT22;9271;48.590;8.866;2023-09-30T02:43:56;17.10;99.90
18291;DHT22;9271;48.590;8.866;2023-09-30T02:46:23;17.10;99.90
18291;DHT22;9271;48.590;8.866;2023-09-30T02:48:54;17.30;99.90
18291;DHT22;9271;48.590;8.866;2023-09-30T02:51:20;17.40;99.90
18291;DHT22;9271;48.590;8.866;2023-09-30T02:53:47;17.50;99.90
18291;DHT22;9271;48.590;8.866;2023-09-30T02:56:14;17.40;99.90
18291;DHT22;9271;48.590;8.866;2023-09-30T02:58:40;17.30;99.90
18291;DHT22;9271;48.590;8.866;2023-09-30T03:01:07;17.40;99.90
18291;DHT22;9271;48.590;8.866;2023-09-30T03:03:35;17.50;99.90
18291;DHT22;9271;48.590;8.866;2023-09-30T03:06:03;17.60;99.90
18291;DHT22;9271;48.590;8.866;2023-09-30T03:08:31;17.70;99.90
18291;DHT22;9271;48.590;8.866;2023-09-30T03:10:58;17.60;99.90
18291;DHT22;9271;48.590;8.866;2023-09-30T03:13:24;17.60;99.90
18291;DHT22;9271;48.590;8.866;2023-09-30T03:15:52;17.60;99.90
18291;DHT22;9271;48.590;8.866;2023-09-30T03:18:19;17.50;99.90
18291;DHT22;9271;48.590;8.866;2023-09-30T03:20:49;17.50;99.90
18291;DHT22;9271;48.590;8.866;2023-09-30T03:23:18;17.50;99.90
18291;DHT22;9271;48.590;8.866;2023-09-30T03:25:45;17.50;99.90
18291;DHT22;9271;48.590;8.866;2023-09-30T03:28:12;17.50;99.90
18291;DHT22;9271;48.590;8.866;2023-09-30T03:30:40;17.50;99.90
18291;DHT22;9271;48.590;8.866;2023-09-30T03:33:07;17.40;99.90
18291;DHT22;9271;48.590;8.866;2023-09-30T03:35:34;17.40;99.90
18291;DHT22;9271;48.590;8.866;2023-09-30T03:38:02;17.40;99.90
18291;DHT22;9271;48.590;8.866;2023-09-30T03:40:31;17.50;99.90
18291;DHT22;9271;48.590;8.866;2023-09-30T03:42:59;17.60;99.90
18291;DHT22;9271;48.590;8.866;2023-09-30T03:45:25;17.60;99.90
18291;DHT22;9271;48.590;8.866;2023-09-30T03:47:52;17.50;99.90
18291;DHT22;9271;48.590;8.866;2023-09-30T03:50:19;17.50;99.90
18291;DHT22;9271;48.590;8.866;2023-09-30T03:52:48;17.50;99.90
18291;DHT22;9271;48.590;8.866;2023-09-30T03:55:16;17.60;99.90
18291;DHT22;9271;48.590;8.866;2023-09-30T03:57:44;17.50;99.90
18291;DHT22;9271;48.590;8.866;2023-09-30T04:00:13;17.50;99.90
18291;DHT22;9271;48.590;8.866;2023-09-30T04:02:44;17.50;99.90
18291;DHT22;9271;48.590;8.866;2023-09-30T04:05:13;17.50;99.90
18291;DHT22;9271;48.590;8.866;2023-09-30T04:07:42;17.50;99.90
18291;DHT22;9271;48.590;8.866;2023-09-30T04:10:09;17.50;99.90
18291;DHT22;9271;48.590;8.866;2023-09-30T04:12:36;17.40;99.90
18291;DHT22;9271;48.590;8.866;2023-09-30T04:15:05;17.50;99.90
18291;DHT22;9271;48.590;8.866;2023-09-30T04:17:32;17.50;99.90
18291;DHT22;9271;48.590;8.866;2023-09-30T04:19:58;17.30;99.90
18291;DHT22;9271;48.590;8.866;2023-09-30T04:22:25;17.20;99.90
18291;DHT22;9271;48.590;8.866;2023-09-30T04:24:55;17.10;99.90
18291;DHT22;9271;48.590;8.866;2023-09-30T04:27:21;16.90;99.90
18291;DHT22;9271;48.590;8.866;2023-09-30T04:29:48;16.80;99.90
18291;DHT22;9271;48.590;8.866;2023-09-30T04:32:17;16.80;99.90
18291;DHT22;9271;48.590;8.866;2023-09-30T04:34:45;16.70;99.90
18291;DHT22;9271;48.590;8.866;2023-09-30T04:37:12;16.80;99.90
18291;DHT22;9271;48.590;8.866;2023-09-30T04:39:39;16.80;99.90
18291;DHT22;9271;48.590;8.866;2023-09-30T04:42:05;16.80;99.90
18291;DHT22;9271;48.590;8.866;2023-09-30T04:44:36;16.80;99.90
18291;DHT22;9271;48.590;8.866;2023-09-30T04:47:03;16.80;99.90
18291;DHT22;9271;48.590;8.866;2023-09-30T04:49:31;16.80;99.90
18291;DHT22;9271;48.590;8.866;2023-09-30T04:51:58;16.80;99.90
18291;DHT22;9271;48.590;8.866;2023-09-30T04:54:25;16.80;99.90
18291;DHT22;9271;48.590;8.866;2023-09-30T04:56:52;16.80;99.90
18291;DHT22;9271;48.590;8.866;2023-09-30T04:59:18;16.90;99.90
18291;DHT22;9271;48.590;8.866;2023-09-30T05:01:45;17.00;99.90
18291;DHT22;9271;48.590;8.866;2023-09-30T05:04:12;17.00;99.90
18291;DHT22;9271;48.590;8.866;2023-09-30T05:06:40;17.00;99.90
18291;DHT22;9271;48.590;8.866;2023-09-30T05:09:07;16.90;99.90
18291;DHT22;9271;48.590;8.866;2023-09-30T05:11:35;17.00;99.90
18291;DHT22;9271;48.590;8.866;2023-09-30T05:14:02;16.90;99.90
18291;DHT22;9271;48.590;8.866;2023-09-30T05:16:30;17.00;99.90
18291;DHT22;9271;48.590;8.866;2023-09-30T05:18:57;17.10;99.90
18291;DHT22;9271;48.590;8.866;2023-09-30T05:21:24;17.10;99.90
18291;DHT22;9271;48.590;8.866;2023-09-30T05:23:52;17.20;99.90
18291;DHT22;9271;48.590;8.866;2023-09-30T05:26:19;17.20;99.90
18291;DHT22;9271;48.590;8.866;2023-09-30T05:28:46;17.20;99.90
18291;DHT22;9271;48.590;8.866;2023-09-30T05:31:12;17.30;99.90
18291;DHT22;9271;48.590;8.866;2023-09-30T05:33:39;17.10;99.90
18291;DHT22;9271;48.590;8.866;2023-09-30T05:36:06;17.00;99.90
18291;DHT22;9271;48.590;8.866;2023-09-30T05:38:32;17.00;99.90
18291;DHT22;9271;48.590;8.866;2023-09-30T05:41:00;17.00;99.90
18291;DHT22;9271;48.590;8.866;2023-09-30T05:43:28;16.70;99.90
18291;DHT22;9271;48.590;8.866;2023-09-30T05:45:55;16.20;99.90
18291;DHT22;9271;48.590;8.866;2023-09-30T05:48:22;16.00;99.90
18291;DHT22;9271;48.590;8.866;2023-09-30T05:50:49;16.20;99.90
18291;DHT22;9271;48.590;8.866;2023-09-30T05:53:15;16.40;99.90
18291;DHT22;9271;48.590;8.866;2023-09-30T05:55:42;16.40;99.90
18291;DHT22;9271;48.590;8.866;2023-09-30T05:58:13;16.50;99.90
18291;DHT22;9271;48.590;8.866;2023-09-30T06:00:41;16.70;99.90
18291;DHT22;9271;48.590;8.866;2023-09-30T06:03:08;16.80;99.90
18291;DHT22;9271;48.590;8.866;2023-09-30T06:05:39;17.00;99.90
18291;DHT22;9271;48.590;8.866;2023-09-30T06:08:07;17.10;99.90
18291;DHT22;9271;48.590;8.866;2023-09-30T06:10:35;17.20;99.90
18291;DHT22;9271;48.590;8.866;2023-09-30T06:13:03;17.30;99.90
18291;DHT22;9271;48.590;8.866;2023-09-30T06:15:32;17.40;99.90
18291;DHT22;9271;48.590;8.866;2023-09-30T06:17:59;17.40;99.90
18291;DHT22;9271;48.590;8.866;2023-09-30T06:20:26;17.40;99.90
18291;DHT22;9271;48.590;8.866;2023-09-30T06:22:56;17.50;99.90
18291;DHT22;9271;48.590;8.866;2023-09-30T06:25:23;17.80;99.90
18291;DHT22;9271;48.590;8.866;2023-09-30T06:27:50;17.90;99.90
18291;DHT22;9271;48.590;8.866;2023-09-30T06:30:17;18.30;99.90
18291;DHT22;9271;48.590;8.866;2023-09-30T06:32:46;18.80;99.90
18291;DHT22;9271;48.590;8.866;2023-09-30T06:35:13;19.40;99.90
18291;DHT22;9271;48.590;8.866;2023-09-30T06:37:40;20.00;99.90
18291;DHT22;9271;48.590;8.866;2023-09-30T06:40:08;20.10;99.90
18291;DHT22;9271;48.590;8.866;2023-09-30T06:42:35;20.20;99.90
18291;DHT22;9271;48.590;8.866;2023-09-30T06:45:02;20.50;99.90
18291;DHT22;9271;48.590;8.866;2023-09-30T06:47:31;20.90;99.90
18291;DHT22;9271;48.590;8.866;2023-09-30T06:50:00;20.90;99.90
18291;DHT22;9271;48.590;8.866;2023-09-30T06:52:33;21.10;99.60
18291;DHT22;9271;48.590;8.866;2023-09-30T06:54:59;21.50;99.10
18291;DHT22;9271;48.590;8.866;2023-09-30T06:57:26;21.90;98.40
18291;DHT22;9271;48.590;8.866;2023-09-30T06:59:53;21.90;97.90
18291;DHT22;9271;48.590;8.866;2023-09-30T07:02:23;21.80;98.10
18291;DHT22;9271;48.590;8.866;2023-09-30T07:04:49;21.90;98.00
18291;DHT22;9271;48.590;8.866;2023-09-30T07:07:17;21.90;98.00
18291;DHT22;9271;48.590;8.866;2023-09-30T07:09:44;21.60;98.20
18291;DHT22;9271;48.590;8.866;2023-09-30T07:12:11;21.60;98.30
18291;DHT22;9271;48.590;8.866;2023-09-30T07:14:37;21.50;98.40
18291;DHT22;9271;48.590;8.866;2023-09-30T07:17:04;21.30;98.80
18291;DHT22;9271;48.590;8.866;2023-09-30T07:19:31;21.10;98.90
18291;DHT22;9271;48.590;8.866;2023-09-30T07:21:58;21.20;98.80
18291;DHT22;9271;48.590;8.866;2023-09-30T07:24:26;21.30;99.00
18291;DHT22;9271;48.590;8.866;2023-09-30T07:26:52;21.50;98.60
18291;DHT22;9271;48.590;8.866;2023-09-30T07:29:20;22.00;98.10
18291;DHT22;9271;48.590;8.866;2023-09-30T07:31:47;22.70;97.60
18291;DHT22;9271;48.590;8.866;2023-09-30T07:34:13;23.30;96.40
18291;DHT22;9271;48.590;8.866;2023-09-30T07:36:40;23.80;95.40
18291;DHT22;9271;48.590;8.866;2023-09-30T07:39:07;24.20;94.80
18291;DHT22;9271;48.590;8.866;2023-09-30T07:41:36;24.40;94.40
18291;DHT22;9271;48.590;8.866;2023-09-30T07:44:03;24.80;93.40
18291;DHT22;9271;48.590;8.866;2023-09-30T07:46:30;25.40;92.70
18291;DHT22;9271;48.590;8.866;2023-09-30T07:48:57;26.30;91.10
18291;DHT22;9271;48.590;8.866;2023-09-30T07:51:24;27.00;89.30
18291;DHT22;9271;48.590;8.866;2023-09-30T07:53:51;26.70;88.80
18291;DHT22;9271;48.590;8.866;2023-09-30T07:56:18;26.80;87.30
18291;DHT22;9271;48.590;8.866;2023-09-30T07:58:46;27.50;85.80
18291;DHT22;9271;48.590;8.866;2023-09-30T08:01:13;28.90;81.60
18291;DHT22;9271;48.590;8.866;2023-09-30T08:03:40;29.20;77.90
18291;DHT22;9271;48.590;8.866;2023-09-30T08:06:07;30.70;74.60
18291;DHT22;9271;48.590;8.866;2023-09-30T08:08:35;32.00;67.60
18291;DHT22;9271;48.590;8.866;2023-09-30T08:11:02;33.40;61.50
18291;DHT22;9271;48.590;8.866;2023-09-30T08:13:30;34.20;56.90
18291;DHT22;9271;48.590;8.866;2023-09-30T08:15:59;34.90;54.10
18291;DHT22;9271;48.590;8.866;2023-09-30T08:18:25;35.10;53.10
18291;DHT22;9271;48.590;8.866;2023-09-30T08:20:52;35.60;50.30
18291;DHT22;9271;48.590;8.866;2023-09-30T08:23:19;35.10;49.20
18291;DHT22;9271;48.590;8.866;2023-09-30T08:25:46;35.70;48.00
18291;DHT22;9271;48.590;8.866;2023-09-30T08:28:13;36.10;46.70
18291;DHT22;9271;48.590;8.866;2023-09-30T08:30:39;36.50;45.60
18291;DHT22;9271;48.590;8.866;2023-09-30T08:33:07;35.70;45.40
18291;DHT22;9271;48.590;8.866;2023-09-30T08:35:35;34.20;47.90
18291;DHT22;9271;48.590;8.866;2023-09-30T08:38:03;32.60;50.10
18291;DHT22;9271;48.590;8.866;2023-09-30T08:40:31;31.80;52.20
18291;DHT22;9271;48.590;8.866;2023-09-30T08:42:57;29.70;55.60
18291;DHT22;9271;48.590;8.866;2023-09-30T08:45:28;28.70;57.10
18291;DHT22;9271;48.590;8.866;2023-09-30T08:47:57;28.40;58.70
18291;DHT22;9271;48.590;8.866;2023-09-30T08:50:27;27.40;60.50
18291;DHT22;9271;48.590;8.866;2023-09-30T08:52:54;26.50;64.30
18291;DHT22;9271;48.590;8.866;2023-09-30T08:55:21;26.60;64.80
18291;DHT22;9271;48.590;8.866;2023-09-30T08:57:50;26.30;65.80
18291;DHT22;9271;48.590;8.866;2023-09-30T09:00:17;26.80;66.10
18291;DHT22;9271;48.590;8.866;2023-09-30T09:02:44;28.00;62.30
18291;DHT22;9271;48.590;8.866;2023-09-30T09:05:11;28.70;60.40
18291;DHT22;9271;48.590;8.866;2023-09-30T09:07:39;28.90;60.00
18291;DHT22;9271;48.590;8.866;2023-09-30T09:10:09;27.80;60.60
18291;DHT22;9271;48.590;8.866;2023-09-30T09:12:39;26.80;65.30
18291;DHT22;9271;48.590;8.866;2023-09-30T09:15:07;24.30;72.70
18291;DHT22;9271;48.590;8.866;2023-09-30T09:17:44;24.50;75.60
18291;DHT22;9271;48.590;8.866;2023-09-30T09:20:16;27.00;70.00
18291;DHT22;9271;48.590;8.866;2023-09-30T09:22:47;29.60;61.90
18291;DHT22;9271;48.590;8.866;2023-09-30T09:25:16;31.70;58.00
18291;DHT22;9271;48.590;8.866;2023-09-30T09:27:43;32.30;54.50
18291;DHT22;9271;48.590;8.866;2023-09-30T09:30:17;34.20;51.50
18291;DHT22;9271;48.590;8.866;2023-09-30T09:32:58;34.00;49.90
18291;DHT22;9271;48.590;8.866;2023-09-30T09:35:25;35.30;47.70
18291;DHT22;9271;48.590;8.866;2023-09-30T09:37:57;35.90;44.50
18291;DHT22;9271;48.590;8.866;2023-09-30T09:40:24;36.90;43.90
18291;DHT22;9271;48.590;8.866;2023-09-30T09:42:51;37.40;42.40
18291;DHT22;9271;48.590;8.866;2023-09-30T09:45:21;35.40;43.00
18291;DHT22;9271;48.590;8.866;2023-09-30T09:47:49;34.90;44.60
18291;DHT22;9271;48.590;8.866;2023-09-30T09:50:17;32.80;47.80
18291;DHT22;9271;48.590;8.866;2023-09-30T09:52:44;32.70;47.90
18291;DHT22;9271;48.590;8.866;2023-09-30T09:55:15;34.40;45.40
18291;DHT22;9271;48.590;8.866;2023-09-30T09:57:43;35.80;43.80
18291;DHT22;9271;48.590;8.866;2023-09-30T10:00:12;36.40;41.50
18291;DHT22;9271;48.590;8.866;2023-09-30T10:02:40;34.40;43.90
18291;DHT22;9271;48.590;8.866;2023-09-30T10:05:07;31.70;49.30
18291;DHT22;9271;48.590;8.866;2023-09-30T10:07:41;32.40;49.10
18291;DHT22;9271;48.590;8.866;2023-09-30T10:10:16;35.20;44.40
18291;DHT22;9271;48.590;8.866;2023-09-30T10:12:43;36.50;42.80
18291;DHT22;9271;48.590;8.866;2023-09-30T10:15:37;37.60;39.90
18291;DHT22;9271;48.590;8.866;2023-09-30T10:18:06;38.10;38.00
18291;DHT22;9271;48.590;8.866;2023-09-30T10:20:34;38.00;36.80
18291;DHT22;9271;48.590;8.866;2023-09-30T10:23:25;37.70;38.20
18291;DHT22;9271;48.590;8.866;2023-09-30T10:25:55;37.40;37.80
18291;DHT22;9271;48.590;8.866;2023-09-30T10:28:41;36.50;39.80
18291;DHT22;9271;48.590;8.866;2023-09-30T10:31:15;37.20;38.60
18291;DHT22;9271;48.590;8.866;2023-09-30T10:34:17;38.50;37.20
18291;DHT22;9271;48.590;8.866;2023-09-30T10:36:44;39.00;35.30
18291;DHT22;9271;48.590;8.866;2023-09-30T10:39:13;37.70;35.60
18291;DHT22;9271;48.590;8.866;2023-09-30T10:41:50;38.50;36.50
18291;DHT22;9271;48.590;8.866;2023-09-30T10:44:33;38.90;33.80
18291;DHT22;9271;48.590;8.866;2023-09-30T10:47:01;37.90;35.30
18291;DHT22;9271;48.590;8.866;2023-09-30T10:49:47;36.20;36.30
18291;DHT22;9271;48.590;8.866;2023-09-30T10:52:21;35.00;38.20
18291;DHT22;9271;48.590;8.866;2023-09-30T10:54:49;31.90;42.10
18291;DHT22;9271;48.590;8.866;2023-09-30T10:57:27;30.70;46.20
18291;DHT22;9271;48.590;8.866;2023-09-30T11:00:07;30.60;44.50
18291;DHT22;9271;48.590;8.866;2023-09-30T11:02:48;28.80;47.20
18291;DHT22;9271;48.590;8.866;2023-09-30T11:05:14;26.70;51.40
18291;DHT22;9271;48.590;8.866;2023-09-30T11:07:41;28.00;49.60
18291;DHT22;9271;48.590;8.866;2023-09-30T11:10:09;28.40;46.20
18291;DHT22;9271;48.590;8.866;2023-09-30T11:12:39;28.40;47.30
18291;DHT22;9271;48.590;8.866;2023-09-30T11:15:19;28.50;48.00
18291;DHT22;9271;48.590;8.866;2023-09-30T11:17:46;28.60;48.10
18291;DHT22;9271;48.590;8.866;2023-09-30T11:20:13;28.80;47.10
18291;DHT22;9271;48.590;8.866;2023-09-30T11:22:40;30.50;42.00
18291;DHT22;9271;48.590;8.866;2023-09-30T11:25:15;33.10;40.20
18291;DHT22;9271;48.590;8.866;2023-09-30T11:27:44;34.90;37.10
18291;DHT22;9271;48.590;8.866;2023-09-30T11:30:13;36.40;35.70
18291;DHT22;9271;48.590;8.866;2023-09-30T11:32:40;36.80;34.60
18291;DHT22;9271;48.590;8.866;2023-09-30T11:35:09;37.00;34.70
18291;DHT22;9271;48.590;8.866;2023-09-30T11:37:36;37.80;34.40
18291;DHT22;9271;48.590;8.866;2023-09-30T11:40:14;37.40;34.20
18291;DHT22;9271;48.590;8.866;2023-09-30T11:42:41;37.60;31.70
18291;DHT22;9271;48.590;8.866;2023-09-30T11:45:21;36.30;36.10
18291;DHT22;9271;48.590;8.866;2023-09-30T11:47:48;38.40;34.30
18291;DHT22;9271;48.590;8.866;2023-09-30T11:50:15;38.30;32.30
18291;DHT22;9271;48.590;8.866;2023-09-30T11:52:44;39.00;31.00
18291;DHT22;9271;48.590;8.866;2023-09-30T11:55:12;40.30;30.30
18291;DHT22;9271;48.590;8.866;2023-09-30T11:57:39;39.70;29.50
18291;DHT22;9271;48.590;8.866;2023-09-30T12:00:07;39.00;30.70
18291;DHT22;9271;48.590;8.866;2023-09-30T12:02:40;38.00;30.40
18291;DHT22;9271;48.590;8.866;2023-09-30T12:05:07;37.60;32.50
18291;DHT22;9271;48.590;8.866;2023-09-30T12:07:37;37.80;31.90
18291;DHT22;9271;48.590;8.866;2023-09-30T12:10:04;36.40;32.00
18291;DHT22;9271;48.590;8.866;2023-09-30T12:12:30;34.10;35.70
18291;DHT22;9271;48.590;8.866;2023-09-30T12:14:57;32.80;37.90
18291;DHT22;9271;48.590;8.866;2023-09-30T12:17:24;32.20;38.50
18291;DHT22;9271;48.590;8.866;2023-09-30T12:19:52;31.40;41.20
18291;DHT22;9271;48.590;8.866;2023-09-30T12:22:18;29.90;39.90
18291;DHT22;9271;48.590;8.866;2023-09-30T12:24:46;28.10;44.10
18291;DHT22;9271;48.590;8.866;2023-09-30T12:27:13;29.30;44.20
18291;DHT22;9271;48.590;8.866;2023-09-30T12:29:39;30.40;42.60
18291;DHT22;9271;48.590;8.866;2023-09-30T12:32:06;31.60;41.00
18291;DHT22;9271;48.590;8.866;2023-09-30T12:34:33;31.60;38.90
18291;DHT22;9271;48.590;8.866;2023-09-30T12:37:02;29.90;40.80
18291;DHT22;9271;48.590;8.866;2023-09-30T12:39:29;28.80;43.30
18291;DHT22;9271;48.590;8.866;2023-09-30T12:41:55;29.50;44.20
18291;DHT22;9271;48.590;8.866;2023-09-30T12:44:22;31.50;40.30
18291;DHT22;9271;48.590;8.866;2023-09-30T12:46:49;33.30;37.20
18291;DHT22;9271;48.590;8.866;2023-09-30T12:49:15;34.70;34.30
18291;DHT22;9271;48.590;8.866;2023-09-30T12:51:42;35.70;33.50
18291;DHT22;9271;48.590;8.866;2023-09-30T12:54:10;37.30;31.80
18291;DHT22;9271;48.590;8.866;2023-09-30T12:56:38;37.70;29.70
18291;DHT22;9271;48.590;8.866;2023-09-30T12:59:05;38.60;29.40
18291;DHT22;9271;48.590;8.866;2023-09-30T13:01:31;38.80;29.00
18291;DHT22;9271;48.590;8.866;2023-09-30T13:03:59;35.10;31.50
18291;DHT22;9271;48.590;8.866;2023-09-30T13:06:26;31.40;37.60
18291;DHT22;9271;48.590;8.866;2023-09-30T13:08:54;30.80;39.50
18291;DHT22;9271;48.590;8.866;2023-09-30T13:11:22;30.40;40.50
18291;DHT22;9271;48.590;8.866;2023-09-30T13:13:49;30.10;41.20
18291;DHT22;9271;48.590;8.866;2023-09-30T13:16:15;29.40;41.80
18291;DHT22;9271;48.590;8.866;2023-09-30T13:18:42;29.10;40.80
18291;DHT22;9271;48.590;8.866;2023-09-30T13:21:09;28.90;43.40
18291;DHT22;9271;48.590;8.866;2023-09-30T13:23:37;28.60;43.30
18291;DHT22;9271;48.590;8.866;2023-09-30T13:26:04;28.40;44.40
18291;DHT22;9271;48.590;8.866;2023-09-30T13:28:32;28.20;44.70
18291;DHT22;9271;48.590;8.866;2023-09-30T13:30:58;28.60;45.60
18291;DHT22;9271;48.590;8.866;2023-09-30T13:33:25;29.90;43.80
18291;DHT22;9271;48.590;8.866;2023-09-30T13:35:52;31.10;41.40
18291;DHT22;9271;48.590;8.866;2023-09-30T13:38:20;33.00;39.00
18291;DHT22;9271;48.590;8.866;2023-09-30T13:40:47;34.70;35.80
18291;DHT22;9271;48.590;8.866;2023-09-30T13:43:14;35.60;34.00
18291;DHT22;9271;48.590;8.866;2023-09-30T13:45:42;36.50;33.30
18291;DHT22;9271;48.590;8.866;2023-09-30T13:48:08;37.00;32.60
18291;DHT22;9271;48.590;8.866;2023-09-30T13:50:35;37.60;31.10
18291;DHT22;9271;48.590;8.866;2023-09-30T13:53:02;38.00;30.40
18291;DHT22;9271;48.590;8.866;2023-09-30T13:55:28;37.80;30.50
18291;DHT22;9271;48.590;8.866;2023-09-30T13:57:55;37.70;31.20
18291;DHT22;9271;48.590;8.866;2023-09-30T14:00:22;37.70;30.80
18291;DHT22;9271;48.590;8.866;2023-09-30T14:02:50;37.70;30.70
18291;DHT22;9271;48.590;8.866;2023-09-30T14:05:17;37.30;31.20
18291;DHT22;9271;48.590;8.866;2023-09-30T14:07:45;36.70;31.00
18291;DHT22;9271;48.590;8.866;2023-09-30T14:10:12;35.90;32.30
18291;DHT22;9271;48.590;8.866;2023-09-30T14:12:38;34.80;34.10
18291;DHT22;9271;48.590;8.866;2023-09-30T14:15:06;33.90;35.10
18291;DHT22;9271;48.590;8.866;2023-09-30T14:17:33;32.70;35.90
18291;DHT22;9271;48.590;8.866;2023-09-30T14:20:03;31.50;38.70
18291;DHT22;9271;48.590;8.866;2023-09-30T14:22:30;31.20;39.00
18291;DHT22;9271;48.590;8.866;2023-09-30T14:24:57;30.80;39.30
18291;DHT22;9271;48.590;8.866;2023-09-30T14:27:24;31.00;40.20
18291;DHT22;9271;48.590;8.866;2023-09-30T14:29:51;31.40;39.30
18291;DHT22;9271;48.590;8.866;2023-09-30T14:32:18;31.90;38.70
18291;DHT22;9271;48.590;8.866;2023-09-30T14:34:45;31.90;39.70
18291;DHT22;9271;48.590;8.866;2023-09-30T14:37:13;31.50;40.60
18291;DHT22;9271;48.590;8.866;2023-09-30T14:39:39;31.10;41.40
18291;DHT22;9271;48.590;8.866;2023-09-30T14:42:06;31.20;41.90
18291;DHT22;9271;48.590;8.866;2023-09-30T14:44:33;31.60;41.70
18291;DHT22;9271;48.590;8.866;2023-09-30T14:46:59;31.80;40.60
18291;DHT22;9271;48.590;8.866;2023-09-30T14:49:26;32.20;40.00
18291;DHT22;9271;48.590;8.866;2023-09-30T14:51:53;32.50;39.50
18291;DHT22;9271;48.590;8.866;2023-09-30T14:54:21;32.50;39.40
18291;DHT22;9271;48.590;8.866;2023-09-30T14:56:47;32.40;39.50
18291;DHT22;9271;48.590;8.866;2023-09-30T14:59:14;32.30;40.20
18291;DHT22;9271;48.590;8.866;2023-09-30T15:01:41;32.00;40.40
18291;DHT22;9271;48.590;8.866;2023-09-30T15:04:08;32.20;40.60
18291;DHT22;9271;48.590;8.866;2023-09-30T15:06:34;32.30;40.70
18291;DHT22;9271;48.590;8.866;2023-09-30T15:09:02;32.10;39.90
18291;DHT22;9271;48.590;8.866;2023-09-30T15:11:30;32.40;40.20
18291;DHT22;9271;48.590;8.866;2023-09-30T15:13:57;32.10;40.10
18291;DHT22;9271;48.590;8.866;2023-09-30T15:16:24;32.60;39.20
18291;DHT22;9271;48.590;8.866;2023-09-30T15:18:51;32.40;38.90
18291;DHT22;9271;48.590;8.866;2023-09-30T15:21:17;32.50;39.70
18291;DHT22;9271;48.590;8.866;2023-09-30T15:23:45;32.30;39.40
18291;DHT22;9271;48.590;8.866;2023-09-30T15:26:11;32.40;39.30
18291;DHT22;9271;48.590;8.866;2023-09-30T15:28:39;32.20;39.80
18291;DHT22;9271;48.590;8.866;2023-09-30T15:31:06;31.90;40.10
18291;DHT22;9271;48.590;8.866;2023-09-30T15:33:33;31.60;40.00
18291;DHT22;9271;48.590;8.866;2023-09-30T15:36:07;31.60;41.20
18291;DHT22;9271;48.590;8.866;2023-09-30T15:38:34;30.70;40.80
18291;DHT22;9271;48.590;8.866;2023-09-30T15:41:01;29.20;42.90
18291;DHT22;9271;48.590;8.866;2023-09-30T15:43:29;28.60;45.10
18291;DHT22;9271;48.590;8.866;2023-09-30T15:45:57;28.20;45.40
18291;DHT22;9271;48.590;8.866;2023-09-30T15:48:24;27.50;47.40
18291;DHT22;9271;48.590;8.866;2023-09-30T15:50:50;27.10;47.10